Terminal Aerodrome Forecast
Issued by NWS Northern Indiana

Home | Current Version | Previous Version | Text Only | Print | Product List | Glossary Off
Versions: 1 2 3 4 5 6 7 8 9 10 11 12 13

000
FTUS43 KIWX 192300
TAFFWA
TAF
KFWA 192320Z 2000/2024 32008KT P6SM BKN035
     FM200100 32004KT P6SM SCT035
     FM200600 34004KT P6SM OVC250
     FM201400 02007KT P6SM OVC100=

USA.gov is the U.S. government's official web portal to all federal, state and local government web resources and services.